Multiplayer (Season 2) Tournaments Campaign Leaderboards Pantheon (past seasons)


HummelHummel Global Bronze Silver Gold Platinum Diamond Master Grandmaster


All modes combined Collection Domination Elimination


Stats Latest matches Ghost matches


HummelHummel

White lines = victories against a stronger player / defeats against a weaker player
Italic player names = ghosts


Previous matches >

TimeMatch IDGame ModeMap SeedScore deltaDifference between opponents' initial scoresPlayerVSOpponent
2019-02-08 14:08:24 UTC1674960Collection1569585150-3HummelHummel (1270 -17)181 nodes (Beta 3.2)VS TemplarGFX (1273 +17)364 nodes (Beta 3.2)
2019-01-09 09:40:23 UTC1608495Collection141602409-17HummelHummel (1252 +18)181 nodes (Beta 3.2)VS pda5005 (1269 -18)76 nodes (Beta 3.2)
2019-01-09 09:38:02 UTC1608494Collection828898265+16HummelHummel (1270 -18)181 nodes (Beta 3.2)VS Caschque (1254 +18)67 nodes (Beta 3.2)
2019-01-03 14:44:59 UTC1596039Collection1075304969-9HummelHummel (1252 +18)181 nodes (Beta 3.2)VS Sparkacus (1261 -18)126 nodes (Beta 2.3 RC4)
2019-01-03 14:44:12 UTC1596037Collection78086724-7HummelHummel (1232 +20)181 nodes (Beta 3.2)VS Aristoteles (1239 -20)83 nodes (Beta 3.2)
2019-01-03 14:42:06 UTC1596032Collection1328187943-16HummelHummel (1211 +21)181 nodes (Beta 3.2)VS Kostja1207 (1227 -21)125 nodes (Beta 3.2)
2019-01-03 14:41:18 UTC1596030Collection176787047-14HummelHummel (1211 +0)181 nodes (Beta 3.2)VS buzz3r (1225 +0)87 nodes (Beta 2.3 RC4)
2019-01-03 14:40:47 UTC1596029Collection1677095770-10HummelHummel (1230 -19)181 nodes (Beta 3.2)VS Wraithan (1240 +19)26 nodes (Beta 2.3 RC4)
2019-01-03 14:39:20 UTC1596027Collection2095833822+14HummelHummel (1211 +19)181 nodes (Beta 3.2)VS isony12 (1197 -19)28 nodes (Beta 3.2)
2019-01-03 14:37:12 UTC1596023Collection975639671+39HummelHummel (1193 +18)181 nodes (Beta 3.2)VS Noctilius (1154 -18)81 nodes (Beta 3.2)
2019-01-03 14:36:45 UTC1596020Collection1335035825+63HummelHummel (1217 -24)181 nodes (Beta 3.2)VS ZuesAwoken (1154 +24)15 nodes (Beta 3.2)
2019-01-03 14:36:19 UTC1596019Collection836300731+0HummelHummel (1197 +20)181 nodes (Beta 3.2)VS Pseud3mys (1197 -20)135 nodes (Beta 2.3 RC4)
2019-01-03 14:35:08 UTC1596016Collection1173835449+42HummelHummel (1198 -1)182 nodes (Beta 3.2)VS Dagonius (1156 +1)296 nodes (Beta 3.2)
2019-01-03 14:32:01 UTC1596014Collection1393319510-8HummelHummel (1178 +20)182 nodes (Beta 3.2)VS DogSeeker (1186 -20)77 nodes (Beta 2.3 RC4)
2019-01-03 14:31:33 UTC1596012Collection1611228716+35HummelHummel (1160 +18)182 nodes (Beta 3.2)VS thePast (1125 -18)19 nodes (Beta 3.2)
2019-01-03 14:29:19 UTC1596011Collection747939196-8HummelHummel (1140 +20)182 nodes (Beta 3.2)VS S1ZDATEL (1148 -20)23 nodes (Beta 3.2)
2019-01-03 14:23:33 UTC1596005Collection242933115-2HummelHummel (1120 +20)177 nodes (Beta 3.2)VS Alex100dr2 (1122 -20)16 nodes (Beta 3.2)
2019-01-03 14:23:09 UTC1596003Collection1771882366-1HummelHummel (1100 +20)177 nodes (Beta 3.2)VS H.T (1101 -20)64 nodes (Beta 3.2)
2019-01-03 14:22:01 UTC1595998Collection2117739491+32HummelHummel (1082 +18)177 nodes (Beta 3.2)VS Cyclone Master (1050 -18)302 nodes (Beta 3.2)
2019-01-03 14:21:23 UTC1595996Collection1197456022-7HummelHummel (1062 +20)177 nodes (Beta 3.2)VS Gechauri (1069 -20)31 nodes (Beta 3.2)
2019-01-03 14:19:59 UTC1595994Collection46672394+13HummelHummel (1083 -21)177 nodes (Beta 3.2)VS Lamanna (1070 +21)194 nodes (Beta 3.2)
2019-01-03 14:19:26 UTC1595992Collection133346148+31HummelHummel (1105 -22)177 nodes (Beta 3.2)VS RavingManiac (1074 +22)11 nodes (Beta 3.2)
2019-01-03 14:17:40 UTC1595987Collection80942925-36HummelHummel (1083 +22)176 nodes (Beta 3.2)VS croziflette (1119 -22)90 nodes (Beta 3.2)
2019-01-03 14:17:12 UTC1595984Collection1063977955-7HummelHummel (1063 +20)176 nodes (Beta 3.2)VS LinusDev (1070 -20)159 nodes (Beta 4 RC)
2019-01-03 14:16:27 UTC1595981Collection1691751381+16HummelHummel (1084 -21)176 nodes (Beta 3.2)VS VampWire (1068 +21)53 nodes (Beta 3.2)
2019-01-03 14:15:56 UTC1595979Collection324246314-1HummelHummel (1064 +20)176 nodes (Beta 3.2)VS Somewhat84 (1065 -20)54 nodes (Beta 3.2)
2019-01-03 14:12:24 UTC1595976Collection225140649+13HummelHummel (1085 -21)173 nodes (Beta 3.2)VS rob6969 (1072 +21)21 nodes (Beta 3.2)
2019-01-03 14:11:52 UTC1595973Collection1175420336+36HummelHummel (1107 -22)173 nodes (Beta 3.2)VS Ember R136 (1071 +22)29 nodes (Beta 3.2)
2019-01-03 14:11:00 UTC1595971Collection697137961-24HummelHummel (1086 +21)173 nodes (Beta 3.2)VS robowhale (1110 -21)44 nodes (Beta 3.2)
2019-01-03 14:10:13 UTC1595968Collection770878504+57HummelHummel (1109 -23)173 nodes (Beta 3.2)VS DontKnow96 (1052 +23)60 nodes (Beta 3.2)
2019-01-03 14:08:59 UTC1595966Collection375717506+0HummelHummel (1129 -20)171 nodes (Beta 3.2)VS AnvilsBasalisk (1129 +20)118 nodes (Beta 3.2)
2019-01-03 14:08:30 UTC1595961Collection568848739-2HummelHummel (1149 -20)171 nodes (Beta 3.2)VS Causality (1151 +20)186 nodes (Beta 3.2)
2019-01-03 14:07:52 UTC1595958Collection1874886531+22HummelHummel (1130 +19)171 nodes (Beta 3.2)VS killerprofighter (1108 -19)36 nodes (Beta 3.2)
2019-01-03 14:06:16 UTC1595956Collection183326512-3HummelHummel (1150 -20)170 nodes (Beta 3.2)VS MMDaemon (1153 +20)18 nodes (Beta 3.2)
2019-01-03 14:05:34 UTC1595951Collection127335207-1HummelHummel (1170 -20)170 nodes (Beta 3.2)VS Fatalism (1171 +20)111 nodes (Beta 3.2)
2019-01-03 14:04:26 UTC1595948Collection1722548449-16HummelHummel (1189 -19)170 nodes (Beta 3.2)VS ARCS2010 (1205 +19)47 nodes (Beta 3.2)
2019-01-03 14:03:56 UTC1595946Collection1765138025+29HummelHummel (1171 +18)170 nodes (Beta 3.2)VS Tayrok49 (1142 -18)44 nodes (Beta 3.2)
2019-01-03 14:03:12 UTC1595945Collection666174760-46HummelHummel (1188 -17)170 nodes (Beta 3.2)VS Pyrrhos512 (1234 +17)102 nodes (Beta 3.2)
2019-01-03 14:02:30 UTC1595942Collection842370770+43HummelHummel (1210 -22)170 nodes (Beta 3.2)VS GFX47 (1167 +22)68 nodes (Beta 4 RC)
2019-01-03 14:01:43 UTC1595937Collection1075778472+65HummelHummel (1212 -2)170 nodes (Beta 3.2)VS cmferrin (1147 +2)108 nodes (Beta 3.2)
2019-01-03 14:01:13 UTC1595936Collection1959277564-2HummelHummel (1192 +20)170 nodes (Beta 3.2)VS Hobo With Wifi (1194 -20)38 nodes (Beta 2.3 RC4)
2019-01-03 14:00:14 UTC1595934Collection1773924777+55HummelHummel (1175 +17)170 nodes (Beta 3.2)VS bladewench (1120 -17)86 nodes (Beta 3.2)
2019-01-03 13:59:20 UTC1595929Collection581767948+9HummelHummel (1156 +19)170 nodes (Beta 3.2)VS EnoKrad (1147 -19)63 nodes (Beta 3.2)
2019-01-03 13:58:33 UTC1595925Collection1591443821-4HummelHummel (1136 +20)170 nodes (Beta 3.2)VS freemood (1140 -20)54 nodes (Beta 3.2)
2019-01-03 13:57:11 UTC1595921Collection662044182+55HummelHummel (1119 +17)170 nodes (Beta 3.2)VS vert3x (1064 -17)27 nodes (Beta 3.2)
2019-01-03 13:56:43 UTC1595918Collection467421914-5HummelHummel (1139 -20)170 nodes (Beta 3.2)VS Sseleman (1144 +20)30 nodes (Beta 3.2)
2019-01-03 13:56:09 UTC1595915Collection1604529571-10HummelHummel (1158 -19)170 nodes (Beta 3.2)VS jazzybot (1168 +19)138 nodes (Beta 3.2)
2019-01-03 13:55:21 UTC1595912Collection302165138-6HummelHummel (1138 +20)170 nodes (Beta 3.2)VS CyberLinc626 (1144 -20)17 nodes (Beta 3.2)
2019-01-03 13:54:57 UTC1595909Collection1544183569-13HummelHummel (1117 +21)170 nodes (Beta 3.2)VS i win you lose (1130 -21)15 nodes (Beta 3.2)
2019-01-03 13:54:14 UTC1595907Collection1756262+61HummelHummel (1140 -23)170 nodes (Beta 3.2)VS RebelBreak (1079 +23)54 nodes (Beta 3.2)
2019-01-03 13:53:14 UTC1595901Collection1886904044+11HummelHummel (1161 -21)170 nodes (Beta 3.2)VS Alikabok (1150 +21)39 nodes (Beta 3.2)
2019-01-03 13:52:25 UTC1595896Collection1249367334-5HummelHummel (1161 +0)170 nodes (Beta 3.2)VS Zwifel (1166 +0)111 nodes (Beta 3.2)
2019-01-03 13:51:54 UTC1595892Collection1371500686-5HummelHummel (1141 +20)170 nodes (Beta 3.2)VS Rigal (1146 -20)13 nodes (Beta 3.2)
2019-01-03 13:51:14 UTC1595888Collection1844654542+45HummelHummel (1124 +17)170 nodes (Beta 3.2)VS OlivOliv (1079 -17)42 nodes (Beta 3.2)
2019-01-03 13:48:13 UTC1595876Collection153498255-11HummelHummel (1124 +0)168 nodes (Beta 3.2)VS SneakyPlay (1135 +0)39 nodes (Beta 3.2)
2019-01-03 13:45:37 UTC1595868Collection228359030+36HummelHummel (1106 +18)168 nodes (Beta 3.2)VS cgi-bin (1070 -18)73 nodes (Beta 3.2)
2019-01-03 13:39:10 UTC1595838Collection1447465035+24HummelHummel (1127 -21)166 nodes (Beta 3.2)VS Villy (1103 +21)173 nodes (Beta 3.2)
2019-01-03 13:36:07 UTC1595825Collection1890776224+45HummelHummel (1110 +17)165 nodes (Beta 3.2)VS maxycycyf (1065 -17)26 nodes (Beta 3.2)
2019-01-03 13:33:10 UTC1595810Collection2121052144+19HummelHummel (1131 -21)163 nodes (Beta 3.2)VS Nonterrorist (1112 +21)91 nodes (Beta 4 RC)
2019-01-03 13:32:21 UTC1595807Collection63742837-1HummelHummel (1111 +20)163 nodes (Beta 3.2)VS VlAD0$$ (1112 -20)31 nodes (Beta 3.2)
2019-01-03 13:30:31 UTC1595798Collection1983613555-3HummelHummel (1091 +20)163 nodes (Beta 3.2)VS NKT (1094 -20)147 nodes (Beta 3.2)
2019-01-03 13:20:47 UTC1595775Collection1198596257+8HummelHummel (1111 -20)163 nodes (Beta 3.2)VS carnivoor (1103 +20)78 nodes (Beta 3.2)
2019-01-03 13:18:18 UTC1595769Collection1460160560+17HummelHummel (1132 -21)163 nodes (Beta 3.2)VS maeuoirk (1115 +21)29 nodes (Beta 3.2)
2019-01-03 13:17:01 UTC1595765Collection1811165592-13HummelHummel (1151 -19)163 nodes (Beta 3.2)VS WorldEnder (1164 +19)262 nodes (Beta 3.2)
2019-01-03 13:16:37 UTC1595763Collection644766584+21HummelHummel (1172 -21)163 nodes (Beta 3.2)VS jumboderfliegend (1151 +21)73 nodes (Beta 3.2)
2019-01-03 13:11:00 UTC1595756Collection1317089647-3HummelHummel (1192 -20)161 nodes (Beta 3.2)VS Laskus (1195 +20)32 nodes (Beta 3.2)
2019-01-03 13:05:41 UTC1595752Collection1496789565-5HummelHummel (1192 +0)161 nodes (Beta 3.2)VS elbino999 (1197 +0)64 nodes (Beta 3.2)
2019-01-03 13:04:46 UTC1595748Collection457750-8HummelHummel (1212 -20)161 nodes (Beta 3.2)VS Dyoner (1220 +20)16 nodes (Beta 3.2)
2019-01-03 13:03:45 UTC1595745Collection872267606-2HummelHummel (1232 -20)161 nodes (Beta 3.2)VS Tommaso Battista (1234 +20)98 nodes (Beta 3.2)
2019-01-03 12:58:48 UTC1595737Collection35019090+42HummelHummel (1214 +18)161 nodes (Beta 3.2)VS Grimhack (1172 -18)29 nodes (Beta 3.2)
2019-01-03 12:56:18 UTC1595735Collection592811463-7HummelHummel (1194 +20)161 nodes (Beta 3.2)VS olliechoo (1201 -20)75 nodes (Beta 3.2)
2019-01-03 12:55:31 UTC1595733Collection818745138-13HummelHummel (1173 +21)161 nodes (Beta 3.2)VS Negativstifto (1186 -21)72 nodes (Beta 3.2)
2019-01-03 12:52:27 UTC1595725Collection1837533477-14HummelHummel (1192 -19)165 nodes (Beta 3.2)VS d-Zee (1206 +19)27 nodes (Beta 2.3 RC4)
2019-01-03 12:51:40 UTC1595722Collection239229956-4HummelHummel (1212 -20)165 nodes (Beta 3.2)VS Gurtist2 (1216 +20)123 nodes (Beta 2.3 RC4)
2019-01-03 12:41:12 UTC1595712Collection690246976+22HummelHummel (1193 +19)165 nodes (Beta 3.2)VS All is Chrome (1171 -19)107 nodes (Beta 3.2)
2019-01-03 12:40:10 UTC1595710Collection1541453529+36HummelHummel (1215 -22)165 nodes (Beta 3.2)VS faina (1179 +22)115 nodes (Beta 3.2)
2019-01-03 12:39:09 UTC1595709Collection382125368-2HummelHummel (1235 -20)165 nodes (Beta 3.2)VS Prof K (1237 +20)55 nodes (Beta 3.2)
2019-01-03 12:38:38 UTC1595708Collection808467312+1HummelHummel (1215 +20)165 nodes (Beta 3.2)VS X50CalHeadshotX (1214 -20)315 nodes (Beta 3.2)
2019-01-03 12:37:45 UTC1595707Collection700674563+1HummelHummel (1195 +20)165 nodes (Beta 3.2)VS Dataclast (1194 -20)81 nodes (Beta 3.2)
2019-01-03 12:37:06 UTC1595706Collection1647114003+14HummelHummel (1176 +19)165 nodes (Beta 3.2)VS SegaPewPew (1162 -19)227 nodes (Beta 3.2)
2019-01-03 12:36:25 UTC1595705Collection1115590732+16HummelHummel (1157 +19)165 nodes (Beta 3.2)VS Meeee123333 (1141 -19)61 nodes (Beta 3.2)
2019-01-03 12:35:53 UTC1595704Collection1941403959-16HummelHummel (1176 -19)165 nodes (Beta 3.2)VS KarateSnoopy (1192 +19)15 nodes (Beta 3.2)
2019-01-03 12:33:20 UTC1595698Collection1586793673+0HummelHummel (1156 +20)165 nodes (Beta 3.2)VS Lux Solis Pax (1156 -20)39 nodes (Beta 3.2)
2019-01-03 12:12:53 UTC1595673Collection1002578829-15HummelHummel (1135 +21)161 nodes (Beta 3.2)VS killerfighter (1150 -21)39 nodes (Beta 3.2)
2019-01-03 12:12:16 UTC1595670Collection100176817+42HummelHummel (1117 +18)161 nodes (Beta 3.2)VS vvvvvendetta (1075 -18)38 nodes (Beta 3.2)
2019-01-03 12:10:38 UTC1595666Collection1763661644-16HummelHummel (1096 +21)161 nodes (Beta 3.2)VS Dodon (1112 -21)81 nodes (Beta 3.2)
2019-01-03 12:10:13 UTC1595664Collection1693589772-5HummelHummel (1076 +20)161 nodes (Beta 3.2)VS Jollto (1081 -20)32 nodes (Beta 4 RC)
2019-01-03 12:09:40 UTC1595661Collection1056202876-16HummelHummel (1055 +21)161 nodes (Beta 3.2)VS kenlyck (1071 -21)67 nodes (Beta 3.2)
2019-01-03 12:09:02 UTC1595657Collection1697961957+4HummelHummel (1075 -20)161 nodes (Beta 3.2)VS why_unique (1071 +20)16 nodes (Beta 3.2)
2019-01-03 12:08:23 UTC1595656Collection2037506583+1HummelHummel (1095 -20)161 nodes (Beta 3.2)VS TLM (1094 +20)16 nodes (Beta 3.2)
2019-01-03 12:07:40 UTC1595653Collection454802229-8HummelHummel (1115 -20)161 nodes (Beta 3.2)VS JB420 (1123 +20)85 nodes (Beta 3.2)
2019-01-03 12:07:08 UTC1595651Collection1482857002+5HummelHummel (1095 +20)161 nodes (Beta 3.2)VS PacPac (1090 -20)46 nodes (Beta 3.2)
2019-01-03 12:06:25 UTC1595650Collection348121233+16HummelHummel (1116 -21)161 nodes (Beta 3.2)VS DeltaVictor (1100 +21)54 nodes (Beta 3.2)
2019-01-03 12:05:37 UTC1595648Collection1070784399+1HummelHummel (1136 -20)161 nodes (Beta 3.2)VS A Roaring Lion (1135 +20)127 nodes (Beta 3.2)
2019-01-03 12:04:02 UTC1595644Collection1509635503+0HummelHummel (1156 -20)161 nodes (Beta 3.2)VS mighty moustache (1156 +20)113 nodes (Beta 3.2)
2019-01-03 12:03:24 UTC1595642Collection328228052+18HummelHummel (1137 +19)161 nodes (Beta 3.2)VS PlaidAnarchist96 (1119 -19)100 nodes (Beta 3.2)
2019-01-03 12:01:52 UTC1595639Collection1112550907+0HummelHummel (1117 +20)160 nodes (Beta 3.2)VS Legendmir (1117 -20)178 nodes (Beta 3.2)
2019-01-03 12:01:22 UTC1595637Collection352674004+16HummelHummel (1138 -21)160 nodes (Beta 3.2)VS Hanako+Derakkusu (1122 +21)28 nodes (Beta 4 RC)
2019-01-03 11:59:25 UTC1595634Collection1695285414+8HummelHummel (1158 -20)159 nodes (Beta 3.2)VS dashluli (1150 +20)53 nodes (Beta 3.2)
2019-01-03 11:56:28 UTC1595627Collection350100717-2HummelHummel (1178 -20)156 nodes (Beta 3.2)VS carletto (1180 +20)107 nodes (Beta 3.2)

Previous matches >